createdAt,value
2023-04-18T00:02:07.302Z,79.62
2023-04-18T00:04:34.109Z,79.62
2023-04-18T00:07:00.974Z,79.72
2023-04-18T00:09:27.606Z,79.27
2023-04-18T00:11:54.239Z,79.33
2023-04-18T00:14:20.713Z,79.69
2023-04-18T00:16:47.332Z,79.51
2023-04-18T00:19:14.330Z,79.06
2023-04-18T00:21:44.659Z,78.83
2023-04-18T00:24:11.660Z,79.31
2023-04-18T00:26:38.143Z,79.93
2023-04-18T00:29:04.964Z,79.82
2023-04-18T00:31:31.701Z,80.93
2023-04-18T00:33:58.261Z,80.47
2023-04-18T00:36:24.716Z,80.45
2023-04-18T00:38:51.181Z,79.79
2023-04-18T00:41:18.052Z,80.72
2023-04-18T00:43:44.582Z,80.01
2023-04-18T00:46:11.265Z,80.08
2023-04-18T00:48:39.145Z,80.25
2023-04-18T00:51:07.677Z,79.75
2023-04-18T00:53:35.960Z,80.46
2023-04-18T00:56:02.876Z,80.90
2023-04-18T00:58:32.020Z,80.46
2023-04-18T01:00:58.502Z,80.66
2023-04-18T01:03:28.332Z,80.93
2023-04-18T01:05:55.542Z,80.42
2023-04-18T01:08:22.134Z,80.21
2023-04-18T01:10:49.362Z,79.94
2023-04-18T01:13:18.974Z,80.09
2023-04-18T01:15:48.423Z,80.27
2023-04-18T01:18:19.002Z,79.76
2023-04-18T01:20:48.194Z,79.25
2023-04-18T01:23:16.055Z,79.65
2023-04-18T01:25:43.278Z,80.42
2023-04-18T01:28:11.043Z,80.49
2023-04-18T01:30:37.693Z,80.17
2023-04-18T01:33:05.517Z,80.52
2023-04-18T01:35:33.334Z,80.63
2023-04-18T01:38:00.403Z,80.05
2023-04-18T01:40:27.420Z,80.05
2023-04-18T01:42:53.877Z,79.87
2023-04-18T01:45:20.392Z,80.24
2023-04-18T01:47:47.058Z,80.40
2023-04-18T01:50:14.458Z,80.00
2023-04-18T01:52:42.621Z,79.88
2023-04-18T01:55:09.566Z,79.88
2023-04-18T01:57:36.763Z,79.75
2023-04-18T02:00:06.115Z,79.29
2023-04-18T02:02:41.138Z,80.33
2023-04-18T02:05:08.196Z,80.42
2023-04-18T02:07:38.152Z,80.26
2023-04-18T02:10:38.753Z,80.60
2023-04-18T02:13:06.660Z,80.37
2023-04-18T02:15:33.783Z,80.28
2023-04-18T02:18:00.430Z,80.22
2023-04-18T02:20:31.565Z,80.56
2023-04-18T02:25:42.751Z,80.63
2023-04-18T02:28:09.328Z,80.53
2023-04-18T02:30:35.954Z,80.49
2023-04-18T02:33:02.563Z,80.16
2023-04-18T02:35:29.227Z,79.64
2023-04-18T02:37:55.764Z,80.74
2023-04-18T02:40:22.271Z,81.06
2023-04-18T02:42:48.692Z,80.90
2023-04-18T02:45:15.267Z,80.50
2023-04-18T02:47:53.601Z,81.37
2023-04-18T02:50:20.715Z,81.92
2023-04-18T02:52:47.349Z,81.73
2023-04-18T02:55:15.488Z,81.37
2023-04-18T02:57:43.955Z,81.11
2023-04-18T03:00:35.973Z,81.08
2023-04-18T03:03:22.055Z,81.67
2023-04-18T03:05:56.902Z,81.14
2023-04-18T03:08:23.689Z,81.29
2023-04-18T03:10:50.146Z,81.38
2023-04-18T03:13:19.233Z,81.09
2023-04-18T03:15:45.901Z,80.79
2023-04-18T03:18:13.157Z,80.40
2023-04-18T03:20:41.050Z,80.52
2023-04-18T03:23:08.041Z,81.44
2023-04-18T03:25:35.481Z,81.78
2023-04-18T03:28:03.118Z,81.46
2023-04-18T03:30:29.753Z,81.27
2023-04-18T03:32:59.327Z,80.82
2023-04-18T03:35:25.962Z,81.06
2023-04-18T03:37:52.561Z,81.35
2023-04-18T03:40:24.023Z,81.73
2023-04-18T03:42:52.697Z,81.05
2023-04-18T03:45:20.058Z,80.56
2023-04-18T03:47:47.259Z,80.33
2023-04-18T03:50:14.615Z,81.21
2023-04-18T03:52:42.773Z,81.04
2023-04-18T03:55:09.620Z,80.92
2023-04-18T03:57:36.052Z,80.72
2023-04-18T04:00:08.072Z,80.49
2023-04-18T04:02:42.190Z,80.94
2023-04-18T04:05:11.152Z,80.94
2023-04-18T04:07:38.271Z,80.64
2023-04-18T04:10:06.369Z,81.16
2023-04-18T04:12:32.805Z,81.50
2023-04-18T04:14:59.399Z,81.02
2023-04-18T04:17:26.245Z,81.06
2023-04-18T04:19:53.108Z,80.99
2023-04-18T04:22:20.813Z,81.36
2023-04-18T04:24:47.857Z,81.24
2023-04-18T04:27:18.788Z,81.59
2023-04-18T04:29:45.908Z,81.47
2023-04-18T04:32:13.470Z,81.62
2023-04-18T04:34:41.709Z,81.87
2023-04-18T04:37:10.555Z,81.78
2023-04-18T04:39:46.264Z,82.05
2023-04-18T04:42:28.481Z,81.89
2023-04-18T04:45:03.418Z,82.02
2023-04-18T04:47:29.985Z,82.17
2023-04-18T04:49:56.529Z,81.63
2023-04-18T04:52:22.974Z,81.02
2023-04-18T04:54:51.451Z,81.85
2023-04-18T04:57:19.912Z,81.50
2023-04-18T04:59:46.390Z,81.65
2023-04-18T05:02:13.099Z,81.22
2023-04-18T05:04:40.950Z,81.97
2023-04-18T05:07:07.647Z,83.02
2023-04-18T05:09:34.072Z,82.52
2023-04-18T05:12:01.474Z,83.00
2023-04-18T05:14:27.936Z,81.78
2023-04-18T05:16:55.538Z,82.34
2023-04-18T05:19:22.012Z,82.21
2023-04-18T05:21:48.432Z,81.70
2023-04-18T05:24:15.130Z,82.07
2023-04-18T05:26:41.854Z,81.88
2023-04-18T05:29:08.449Z,81.92
2023-04-18T05:31:34.867Z,81.69
2023-04-18T05:34:01.309Z,82.09
2023-04-18T05:36:28.554Z,81.75
2023-04-18T05:38:55.004Z,81.44
2023-04-18T05:41:21.518Z,81.75
2023-04-18T05:44:01.923Z,81.80
2023-04-18T05:46:31.859Z,81.61
2023-04-18T05:48:58.338Z,81.69
2023-04-18T05:51:24.749Z,81.47
2023-04-18T05:53:51.170Z,81.84
2023-04-18T05:56:17.632Z,81.52
2023-04-18T05:58:45.724Z,82.24
2023-04-18T06:01:14.169Z,83.14
2023-04-18T06:03:41.431Z,83.24
2023-04-18T06:06:08.209Z,83.17
2023-04-18T06:08:34.636Z,82.30
2023-04-18T06:11:01.110Z,82.52
2023-04-18T06:13:27.525Z,82.61
2023-04-18T06:15:54.038Z,81.99
2023-04-18T06:18:20.791Z,82.75
2023-04-18T06:20:47.238Z,82.64
2023-04-18T06:23:13.712Z,82.72
2023-04-18T06:25:41.693Z,82.54
2023-04-18T06:28:08.331Z,82.40
2023-04-18T06:30:34.906Z,82.36
2023-04-18T06:33:01.577Z,82.12
2023-04-18T06:35:30.999Z,82.19
2023-04-18T06:37:57.446Z,81.75
2023-04-18T06:40:23.958Z,82.13
2023-04-18T06:42:50.361Z,82.25
2023-04-18T06:45:17.517Z,82.75
2023-04-18T06:47:44.443Z,82.83
2023-04-18T06:50:11.425Z,83.03
2023-04-18T06:52:40.614Z,83.07
2023-04-18T06:55:09.107Z,82.18
2023-04-18T06:57:35.689Z,81.67
2023-04-18T07:00:02.339Z,82.52
2023-04-18T07:02:28.899Z,82.81
2023-04-18T07:04:55.374Z,82.67
2023-04-18T07:07:22.172Z,82.75
2023-04-18T07:09:49.875Z,82.32
2023-04-18T07:12:16.626Z,82.12
2023-04-18T07:14:43.054Z,81.96
2023-04-18T07:17:09.665Z,81.79
2023-04-18T07:19:36.213Z,82.13
2023-04-18T07:22:02.648Z,81.19
2023-04-18T07:24:29.308Z,82.48
2023-04-18T07:26:55.729Z,82.86
2023-04-18T07:29:22.295Z,82.32
2023-04-18T07:31:49.202Z,82.44
2023-04-18T07:34:16.132Z,82.28
2023-04-18T07:36:42.696Z,82.06
2023-04-18T07:39:09.129Z,81.70
2023-04-18T07:41:35.625Z,81.68
2023-04-18T07:44:04.191Z,81.72
2023-04-18T07:46:32.320Z,82.09
2023-04-18T07:48:59.045Z,82.02
2023-04-18T07:51:31.260Z,81.68
2023-04-18T07:53:58.616Z,81.25
2023-04-18T07:56:25.874Z,81.20
2023-04-18T07:58:52.759Z,81.59
2023-04-18T08:01:21.026Z,81.35
2023-04-18T08:03:50.529Z,80.99
2023-04-18T08:06:17.746Z,81.09
2023-04-18T08:08:44.313Z,81.26
2023-04-18T08:11:10.701Z,81.37
2023-04-18T08:13:37.143Z,81.54
2023-04-18T08:16:03.715Z,81.54
2023-04-18T08:18:30.204Z,81.84
2023-04-18T08:20:56.634Z,82.10
2023-04-18T08:23:23.135Z,81.86
2023-04-18T08:25:49.585Z,81.65
2023-04-18T08:28:16.157Z,81.58
2023-04-18T08:30:43.933Z,81.74
2023-04-18T08:33:10.657Z,82.02
2023-04-18T08:35:37.123Z,82.36
2023-04-18T08:38:03.564Z,82.40
2023-04-18T08:40:30.288Z,82.74
2023-04-18T08:42:57.726Z,82.74
2023-04-18T08:45:24.209Z,82.68
2023-04-18T08:47:51.804Z,82.05
2023-04-18T08:50:18.410Z,81.53
2023-04-18T08:52:48.770Z,81.41
2023-04-18T08:55:16.121Z,82.23
2023-04-18T08:57:42.676Z,82.54
2023-04-18T09:00:10.401Z,82.41
2023-04-18T09:02:42.758Z,82.46
2023-04-18T09:05:18.937Z,82.11
2023-04-18T09:07:46.575Z,81.80
2023-04-18T09:10:13.824Z,82.64
2023-04-18T09:12:42.617Z,82.03
2023-04-18T09:15:14.084Z,82.33
2023-04-18T09:17:45.341Z,81.92
2023-04-18T09:20:15.326Z,82.22
2023-04-18T09:22:57.761Z,82.49
2023-04-18T09:25:26.058Z,82.26
2023-04-18T09:27:53.151Z,82.25
2023-04-18T09:30:39.792Z,81.80
2023-04-18T09:33:09.324Z,82.11
2023-04-18T09:35:37.558Z,82.37
2023-04-18T09:38:04.678Z,82.14
2023-04-18T09:40:31.934Z,82.18
2023-04-18T09:42:58.378Z,81.91
2023-04-18T09:45:25.550Z,81.28
2023-04-18T09:47:53.559Z,82.27
2023-04-18T09:50:20.861Z,81.93
2023-04-18T09:52:48.348Z,82.06
2023-04-18T09:55:19.829Z,81.30
2023-04-18T09:57:48.628Z,81.55
2023-04-18T10:00:26.645Z,80.36
2023-04-18T10:02:58.377Z,80.32
2023-04-18T10:05:31.737Z,80.23
2023-04-18T10:07:58.532Z,81.23
2023-04-18T10:10:25.564Z,80.79
2023-04-18T10:12:55.261Z,80.45
2023-04-18T10:15:24.225Z,79.28
2023-04-18T10:18:03.302Z,79.03
2023-04-18T10:20:32.363Z,80.15
2023-04-18T10:23:00.435Z,79.55
2023-04-18T10:25:39.065Z,79.94
2023-04-18T10:28:09.593Z,80.19
2023-04-18T10:30:42.189Z,79.80
2023-04-18T10:33:32.457Z,80.08
2023-04-18T10:36:03.892Z,80.23
2023-04-18T10:38:31.568Z,79.94
2023-04-18T10:41:22.092Z,80.49
2023-04-18T10:44:09.553Z,78.94
2023-04-18T10:46:39.521Z,80.00
2023-04-18T10:49:25.825Z,79.50
2023-04-18T10:51:58.769Z,79.56
2023-04-18T10:54:31.221Z,79.45
2023-04-18T10:57:01.815Z,80.15
2023-04-18T10:59:29.912Z,79.73
2023-04-18T11:02:18.962Z,79.66
2023-04-18T11:04:50.997Z,79.53
2023-04-18T11:07:17.468Z,79.23
2023-04-18T11:09:54.505Z,79.28
2023-04-18T11:12:21.214Z,78.91
2023-04-18T11:14:54.416Z,78.71
2023-04-18T11:17:26.305Z,78.44
2023-04-18T11:20:09.088Z,78.34
2023-04-18T11:22:50.241Z,78.42
2023-04-18T11:25:17.944Z,77.86
2023-04-18T11:27:46.833Z,77.78
2023-04-18T11:30:14.583Z,78.05
2023-04-18T11:35:12.434Z,76.99
2023-04-18T11:37:39.910Z,77.21
2023-04-18T11:40:09.292Z,77.45
2023-04-18T11:42:37.718Z,77.23
2023-04-18T11:45:08.553Z,76.63
2023-04-18T11:47:35.087Z,76.94
2023-04-18T11:50:06.978Z,76.61
2023-04-18T11:52:34.598Z,76.98
2023-04-18T11:55:19.028Z,75.83
2023-04-18T11:57:55.839Z,76.49
2023-04-18T12:00:42.502Z,75.05
2023-04-18T12:03:16.863Z,74.31
2023-04-18T12:05:43.825Z,72.98
2023-04-18T12:08:20.631Z,71.56
2023-04-18T12:10:48.843Z,71.31
2023-04-18T12:13:15.263Z,72.25
2023-04-18T12:15:44.402Z,73.18
2023-04-18T12:18:14.197Z,73.70
2023-04-18T12:20:46.604Z,72.59
2023-04-18T12:23:37.184Z,72.77
2023-04-18T12:26:14.555Z,71.44
2023-04-18T12:28:45.666Z,71.86
2023-04-18T12:31:12.840Z,71.38
2023-04-18T12:33:39.323Z,70.20
2023-04-18T12:36:08.203Z,68.30
2023-04-18T12:38:35.570Z,69.14
2023-04-18T12:41:02.176Z,68.80
2023-04-18T12:43:28.595Z,67.91
2023-04-18T12:45:55.127Z,66.06
2023-04-18T12:48:21.542Z,66.99
2023-04-18T12:50:47.963Z,67.55
2023-04-18T12:53:14.360Z,68.03
2023-04-18T12:55:41.122Z,66.78
2023-04-18T12:58:07.600Z,66.40
2023-04-18T13:00:34.178Z,66.00
2023-04-18T13:03:01.123Z,64.55
2023-04-18T13:05:32.965Z,64.45
2023-04-18T13:08:12.782Z,64.47
2023-04-18T13:10:43.255Z,65.33
2023-04-18T13:13:09.699Z,66.19
2023-04-18T13:15:36.236Z,64.96
2023-04-18T13:18:05.857Z,62.05
2023-04-18T13:20:33.802Z,62.43
2023-04-18T13:23:01.767Z,60.77
2023-04-18T13:25:28.232Z,63.19
2023-04-18T13:27:55.128Z,63.26
2023-04-18T13:30:21.532Z,63.16
2023-04-18T13:32:48.019Z,60.96
2023-04-18T13:35:14.673Z,58.82
2023-04-18T13:37:41.257Z,59.78
2023-04-18T13:40:08.219Z,60.01
2023-04-18T13:42:36.381Z,60.39
2023-04-18T13:45:03.262Z,60.93
2023-04-18T13:47:29.931Z,58.54
2023-04-18T13:49:57.648Z,59.57
2023-04-18T13:52:24.152Z,59.51
2023-04-18T13:54:50.663Z,59.73
2023-04-18T13:57:17.096Z,61.13
2023-04-18T13:59:43.755Z,59.76
2023-04-18T14:02:10.465Z,60.17
2023-04-18T14:04:37.497Z,59.61
2023-04-18T14:07:06.133Z,59.17
2023-04-18T14:09:32.667Z,59.47
2023-04-18T14:11:59.272Z,58.68
2023-04-18T14:14:25.758Z,57.82
2023-04-18T14:16:53.564Z,58.73
2023-04-18T14:19:20.109Z,58.39
2023-04-18T14:21:47.099Z,58.66
2023-04-18T14:24:14.090Z,57.69
2023-04-18T14:26:40.698Z,57.18
2023-04-18T14:29:07.166Z,57.48
2023-04-18T14:31:33.598Z,57.94
2023-04-18T14:34:00.042Z,55.80
2023-04-18T14:36:27.125Z,56.17
2023-04-18T14:38:54.597Z,56.96
2023-04-18T14:41:21.321Z,58.21
2023-04-18T14:43:47.792Z,57.65
2023-04-18T14:46:18.109Z,57.29
2023-04-18T14:48:46.356Z,57.32
2023-04-18T14:51:12.937Z,55.45
2023-04-18T14:53:39.349Z,55.92
2023-04-18T14:56:06.075Z,57.14
2023-04-18T14:58:32.554Z,54.68
2023-04-18T15:00:59.010Z,53.66
2023-04-18T15:03:25.558Z,53.55
2023-04-18T15:05:53.169Z,50.92
2023-04-18T15:08:19.632Z,50.74
2023-04-18T15:10:47.464Z,51.83
2023-04-18T15:13:13.880Z,50.40
2023-04-18T15:15:40.473Z,52.01
2023-04-18T15:18:08.239Z,52.72
2023-04-18T15:20:36.893Z,51.29
2023-04-18T15:23:03.401Z,51.16
2023-04-18T15:25:30.556Z,50.25
2023-04-18T15:27:58.149Z,48.63
2023-04-18T15:30:25.269Z,49.66
2023-04-18T15:32:52.201Z,48.97
2023-04-18T15:35:18.745Z,45.66
2023-04-18T15:37:45.146Z,49.36
2023-04-18T15:40:16.045Z,51.73
2023-04-18T15:42:43.546Z,50.45
2023-04-18T15:45:10.929Z,52.47
2023-04-18T15:47:38.653Z,52.95
2023-04-18T15:50:05.892Z,53.83
2023-04-18T15:52:32.502Z,52.61
2023-04-18T15:54:59.067Z,53.14
2023-04-18T15:57:25.553Z,53.26
2023-04-18T15:59:52.136Z,53.30
2023-04-18T16:02:18.636Z,53.29
2023-04-18T16:04:45.473Z,53.19
2023-04-18T16:07:12.276Z,53.85
2023-04-18T16:09:38.700Z,51.17
2023-04-18T16:12:07.073Z,51.47
2023-04-18T16:14:33.640Z,52.49
2023-04-18T16:17:00.463Z,52.60
2023-04-18T16:19:26.991Z,52.52
2023-04-18T16:21:53.391Z,53.14
2023-04-18T16:24:19.783Z,53.71
2023-04-18T16:26:46.288Z,54.65
2023-04-18T16:29:12.719Z,55.22
2023-04-18T16:31:39.183Z,56.83
2023-04-18T16:34:05.735Z,56.30
2023-04-18T16:36:35.283Z,56.06
2023-04-18T16:39:01.733Z,53.02
2023-04-18T16:41:28.189Z,53.90
2023-04-18T16:43:54.609Z,52.51
2023-04-18T16:46:21.067Z,52.95
2023-04-18T16:48:48.380Z,53.39
2023-04-18T16:51:15.847Z,54.96
2023-04-18T16:53:42.286Z,55.30
2023-04-18T16:56:09.100Z,54.76
2023-04-18T16:58:35.603Z,55.40
2023-04-18T17:01:02.257Z,54.71
2023-04-18T17:03:28.782Z,53.89
2023-04-18T17:05:55.856Z,54.30
2023-04-18T17:08:22.304Z,56.17
2023-04-18T17:10:51.788Z,54.95
2023-04-18T17:13:18.466Z,55.87
2023-04-18T17:15:44.943Z,56.41
2023-04-18T17:18:11.660Z,56.48
2023-04-18T17:20:38.145Z,56.65
2023-04-18T17:23:04.587Z,55.38
2023-04-18T17:25:31.029Z,54.56
2023-04-18T17:27:57.476Z,56.62
2023-04-18T17:30:23.949Z,57.58
2023-04-18T17:32:50.454Z,58.30
2023-04-18T17:35:16.968Z,58.85
2023-04-18T17:37:43.416Z,59.02
2023-04-18T17:40:11.566Z,59.52
2023-04-18T17:42:38.317Z,59.86
2023-04-18T17:45:09.447Z,59.91
2023-04-18T17:47:36.649Z,60.68
2023-04-18T17:50:07.053Z,61.58
2023-04-18T17:52:33.438Z,61.54
2023-04-18T17:55:01.533Z,61.93
2023-04-18T17:57:30.583Z,62.29
2023-04-18T17:59:57.114Z,62.39
2023-04-18T18:02:23.790Z,62.54
2023-04-18T18:04:51.354Z,63.36
2023-04-18T18:07:18.318Z,63.59
2023-04-18T18:09:45.505Z,63.90
2023-04-18T18:12:12.179Z,64.21
2023-04-18T18:14:40.408Z,64.32
2023-04-18T18:17:06.899Z,64.09
2023-04-18T18:19:36.170Z,64.95
2023-04-18T18:22:02.700Z,64.90
2023-04-18T18:24:29.188Z,64.60
2023-04-18T18:26:56.772Z,65.43
2023-04-18T18:29:23.280Z,66.16
2023-04-18T18:31:49.879Z,65.73
2023-04-18T18:34:16.878Z,65.04
2023-04-18T18:36:43.319Z,65.27
2023-04-18T18:39:11.030Z,66.00
2023-04-18T18:41:37.531Z,65.64
2023-04-18T18:44:04.108Z,66.32
2023-04-18T18:46:30.998Z,66.46
2023-04-18T18:48:57.565Z,66.32
2023-04-18T18:51:24.015Z,66.52
2023-04-18T18:53:50.512Z,66.64
2023-04-18T18:56:17.024Z,66.74
2023-04-18T18:58:43.751Z,66.76
2023-04-18T19:01:11.448Z,66.74
2023-04-18T19:03:38.025Z,66.82
2023-04-18T19:06:05.839Z,67.35
2023-04-18T19:08:32.384Z,67.24
2023-04-18T19:10:58.807Z,67.59
2023-04-18T19:13:25.376Z,67.53
2023-04-18T19:15:51.910Z,67.67
2023-04-18T19:18:19.974Z,67.37
2023-04-18T19:20:46.797Z,67.73
2023-04-18T19:23:13.201Z,67.75
2023-04-18T19:25:39.687Z,67.79
2023-04-18T19:28:06.236Z,67.77
2023-04-18T19:30:32.682Z,67.75
2023-04-18T19:32:59.342Z,68.39
2023-04-18T19:35:25.979Z,68.27
2023-04-18T19:37:52.404Z,68.26
2023-04-18T19:40:18.902Z,68.52
2023-04-18T19:42:46.031Z,68.57
2023-04-18T19:45:13.639Z,68.71
2023-04-18T19:47:42.277Z,68.16
2023-04-18T19:50:09.084Z,68.30
2023-04-18T19:52:35.583Z,68.30
2023-04-18T19:55:02.034Z,68.11
2023-04-18T19:57:29.645Z,69.03
2023-04-18T19:59:56.463Z,69.08
2023-04-18T20:02:23.085Z,69.33
2023-04-18T20:04:49.667Z,69.03
2023-04-18T20:07:16.300Z,69.15
2023-04-18T20:09:42.768Z,69.62
2023-04-18T20:12:09.177Z,69.22
2023-04-18T20:14:35.608Z,69.50
2023-04-18T20:17:02.044Z,70.01
2023-04-18T20:19:29.598Z,69.68
2023-04-18T20:21:56.060Z,69.88
2023-04-18T20:24:23.693Z,69.77
2023-04-18T20:26:51.259Z,69.88
2023-04-18T20:29:17.721Z,69.88
2023-04-18T20:31:44.181Z,69.91
2023-04-18T20:34:10.919Z,69.69
2023-04-18T20:36:41.396Z,69.80
2023-04-18T20:39:08.841Z,70.41
2023-04-18T20:41:36.778Z,70.07
2023-04-18T20:44:06.510Z,70.21
2023-04-18T20:46:33.055Z,70.19
2023-04-18T20:48:59.669Z,70.41
2023-04-18T20:51:26.791Z,69.98
2023-04-18T20:53:53.239Z,70.25
2023-04-18T20:56:20.072Z,70.56
2023-04-18T20:58:46.536Z,70.25
2023-04-18T21:01:13.070Z,70.92
2023-04-18T21:03:39.732Z,70.97
2023-04-18T21:06:06.253Z,70.94
2023-04-18T21:08:35.018Z,71.26
2023-04-18T21:11:01.466Z,71.36
2023-04-18T21:13:27.875Z,71.31
2023-04-18T21:15:56.934Z,71.35
2023-04-18T21:18:23.721Z,71.20
2023-04-18T21:20:50.465Z,71.35
2023-04-18T21:23:16.908Z,71.30
2023-04-18T21:25:43.354Z,71.27
2023-04-18T21:28:09.795Z,71.41
2023-04-18T21:30:36.514Z,71.24
2023-04-18T21:33:03.437Z,71.07
2023-04-18T21:35:30.105Z,71.30
2023-04-18T21:37:56.763Z,71.20
2023-04-18T21:40:24.220Z,71.37
2023-04-18T21:42:53.466Z,71.68
2023-04-18T21:45:19.921Z,71.79
2023-04-18T21:47:46.716Z,71.73
2023-04-18T21:50:13.303Z,71.63
2023-04-18T21:52:39.706Z,71.13
2023-04-18T21:55:06.457Z,71.48
2023-04-18T21:57:32.898Z,71.18
2023-04-18T21:59:59.307Z,71.58
2023-04-18T22:02:27.041Z,71.90
2023-04-18T22:04:53.542Z,72.06
2023-04-18T22:07:19.978Z,72.08
2023-04-18T22:09:46.607Z,71.34
2023-04-18T22:12:14.300Z,71.09
2023-04-18T22:14:41.882Z,71.66
2023-04-18T22:17:09.105Z,71.57
2023-04-18T22:19:35.592Z,71.81
2023-04-18T22:22:02.114Z,72.14
2023-04-18T22:24:28.570Z,72.76
2023-04-18T22:26:55.017Z,72.78
2023-04-18T22:29:21.575Z,73.88
2023-04-18T22:31:47.976Z,73.63
2023-04-18T22:34:14.782Z,74.01
2023-04-18T22:36:42.604Z,73.92
2023-04-18T22:39:09.105Z,74.13
2023-04-18T22:41:35.681Z,74.15
2023-04-18T22:44:02.072Z,74.29
2023-04-18T22:46:28.568Z,74.67
2023-04-18T22:48:55.207Z,74.37
2023-04-18T22:51:23.350Z,74.61
2023-04-18T22:53:49.862Z,74.80
2023-04-18T22:56:16.348Z,74.75
2023-04-18T22:58:42.723Z,74.61
2023-04-18T23:01:09.137Z,74.19
2023-04-18T23:03:35.816Z,74.29
2023-04-18T23:06:02.364Z,74.56
2023-04-18T23:08:28.811Z,74.76
2023-04-18T23:10:55.410Z,75.01
2023-04-18T23:13:21.872Z,75.31
2023-04-18T23:15:48.346Z,76.13
2023-04-18T23:18:15.018Z,75.93
2023-04-18T23:20:41.504Z,76.76
2023-04-18T23:23:07.921Z,76.57
2023-04-18T23:25:34.434Z,76.73
2023-04-18T23:28:00.823Z,76.37
2023-04-18T23:30:27.329Z,76.71
2023-04-18T23:32:53.856Z,77.20
2023-04-18T23:35:20.350Z,76.88
2023-04-18T23:37:46.808Z,76.56
2023-04-18T23:40:13.282Z,76.42
2023-04-18T23:42:39.737Z,76.68
2023-04-18T23:45:06.500Z,76.49
2023-04-18T23:47:32.980Z,76.56
2023-04-18T23:49:59.588Z,77.02
2023-04-18T23:52:26.073Z,76.57
2023-04-18T23:54:52.562Z,76.70
2023-04-18T23:57:18.982Z,77.04
2023-04-18T23:59:45.539Z,76.97
